Time;durP1;ratioP1;P1;durP2;ratioP2;P2;SDS_P1;SDS_P2;PMS_P1;PMS_P2;Temp;Humidity;BMP_temperature;BMP_pressure;BME280_temperature;BME280_humidity;BME280_pressure;Samples;Min_cycle;Max_cycle;Signal;HPM_P1;HPM_P2
2021/05/27 00:01:12;;;;;;;25.73;17.27;;;;;;;;;;5051090;28;20773;-51
2021/05/27 00:03:38;;;;;;;19.30;16.77;;;;;;;;;;5051710;28;20762;-50
2021/05/27 00:06:04;;;;;;;25.93;17.37;;;;;;;;;;5051778;28;20407;-50
2021/05/27 00:08:30;;;;;;;23.40;16.90;;;;;;;;;;5051741;28;20422;-52
2021/05/27 00:10:56;;;;;;;24.30;17.43;;;;;;;;;;5051714;28;20407;-50
2021/05/27 00:13:22;;;;;;;19.90;15.93;;;;;;;;;;5051388;28;20402;-51
2021/05/27 00:15:48;;;;;;;19.80;16.10;;;;;;;;;;5052264;28;20882;-51
2021/05/27 00:18:14;;;;;;;23.30;16.77;;;;;;;;;;5051444;28;20457;-50
2021/05/27 00:20:40;;;;;;;25.60;16.77;;;;;;;;;;5051618;28;20406;-49
2021/05/27 00:23:06;;;;;;;21.80;17.27;;;;;;;;;;5051383;28;20784;-49
2021/05/27 00:25:32;;;;;;;25.37;17.73;;;;;;;;;;5051346;28;20463;-49
2021/05/27 00:27:58;;;;;;;21.47;16.77;;;;;;;;;;5051471;28;20777;-49
2021/05/27 00:30:26;;;;;;;20.90;16.30;;;;;;;;;;5051362;28;20407;-50
2021/05/27 00:32:52;;;;;;;18.90;15.43;;;;;;;;;;5051186;28;20458;-50
2021/05/27 00:35:18;;;;;;;26.00;16.57;;;;;;;;;;5051048;28;20409;-49
2021/05/27 00:37:44;;;;;;;17.30;15.30;;;;;;;;;;5051198;28;20453;-49
2021/05/27 00:40:12;;;;;;;22.73;16.50;;;;;;;;;;5051032;28;20406;-50
2021/05/27 00:42:38;;;;;;;19.70;14.77;;;;;;;;;;5050993;28;20489;-49
2021/05/27 00:45:07;;;;;;;16.80;15.00;;;;;;;;;;5051132;28;20409;-50
2021/05/27 00:47:33;;;;;;;18.93;14.17;;;;;;;;;;5050705;28;20454;-49
2021/05/27 00:49:59;;;;;;;17.37;15.00;;;;;;;;;;5050992;28;20951;-49
2021/05/27 00:52:25;;;;;;;26.10;15.20;;;;;;;;;;5050917;28;20401;-50
2021/05/27 00:54:53;;;;;;;17.20;13.70;;;;;;;;;;5050999;28;20476;-50
2021/05/27 00:57:38;;;;;;;20.43;14.20;;;;;;;;;;5051264;28;21025;-50
2021/05/27 01:00:12;;;;;;;15.30;13.33;;;;;;;;;;5050630;28;20425;-51
2021/05/27 01:02:38;;;;;;;16.80;13.30;;;;;;;;;;5049995;28;20398;-50
2021/05/27 01:05:05;;;;;;;16.10;14.17;;;;;;;;;;5050451;28;20738;-49
2021/05/27 01:07:31;;;;;;;18.83;14.87;;;;;;;;;;5051001;28;20834;-50
2021/05/27 01:09:57;;;;;;;16.13;13.60;;;;;;;;;;5050746;28;20407;-50
2021/05/27 01:12:23;;;;;;;16.17;13.67;;;;;;;;;;5050352;28;20760;-50
2021/05/27 01:17:36;;;;;;;17.90;13.90;;;;;;;;;;5050757;28;20462;-50
2021/05/27 01:20:02;;;;;;;20.93;15.37;;;;;;;;;;5050603;28;20402;-51
2021/05/27 01:22:27;;;;;;;17.73;14.87;;;;;;;;;;5050693;28;20841;-50
2021/05/27 01:24:53;;;;;;;23.13;16.57;;;;;;;;;;5050623;28;20437;-49
2021/05/27 01:27:19;;;;;;;22.73;15.73;;;;;;;;;;5050572;28;20447;-50
2021/05/27 01:29:52;;;;;;;23.50;15.70;;;;;;;;;;5049332;28;20445;-50
2021/05/27 01:32:18;;;;;;;18.87;14.57;;;;;;;;;;5050327;28;20914;-49
2021/05/27 01:34:44;;;;;;;20.90;16.17;;;;;;;;;;5050638;28;20407;-51
2021/05/27 01:37:11;;;;;;;18.60;15.90;;;;;;;;;;5050377;28;20472;-50
2021/05/27 01:39:37;;;;;;;20.20;15.80;;;;;;;;;;5050352;28;20901;-50
2021/05/27 01:42:03;;;;;;;19.93;15.77;;;;;;;;;;5050413;28;20393;-49
2021/05/27 01:44:29;;;;;;;22.57;17.40;;;;;;;;;;5050402;28;20493;-49
2021/05/27 01:46:55;;;;;;;20.37;17.00;;;;;;;;;;5050293;28;20413;-49
2021/05/27 01:49:21;;;;;;;24.07;17.10;;;;;;;;;;5050374;28;20748;-50
2021/05/27 01:51:51;;;;;;;30.83;16.80;;;;;;;;;;5050840;28;20410;-50
2021/05/27 01:54:17;;;;;;;27.47;16.83;;;;;;;;;;5050288;28;20759;-51
2021/05/27 01:56:43;;;;;;;25.90;18.80;;;;;;;;;;5050470;28;20485;-50
2021/05/27 01:59:09;;;;;;;24.20;18.67;;;;;;;;;;5050094;28;20414;-49
2021/05/27 02:01:35;;;;;;;25.60;17.60;;;;;;;;;;5050233;28;20416;-50
2021/05/27 02:04:02;;;;;;;25.90;17.93;;;;;;;;;;5050265;28;20402;-50
2021/05/27 02:06:28;;;;;;;21.73;17.13;;;;;;;;;;5050437;28;20441;-50
2021/05/27 02:11:52;;;;;;;24.33;18.87;;;;;;;;;;5027398;28;20495;-50
2021/05/27 02:14:22;;;;;;;24.00;17.73;;;;;;;;;;5050520;28;20410;-50
2021/05/27 02:16:48;;;;;;;23.83;16.67;;;;;;;;;;5050587;28;20449;-50
2021/05/27 02:19:14;;;;;;;20.87;18.37;;;;;;;;;;5050093;28;20426;-50
2021/05/27 02:21:40;;;;;;;25.27;19.07;;;;;;;;;;5050525;28;20426;-50
2021/05/27 02:24:07;;;;;;;23.23;18.60;;;;;;;;;;5051777;28;21011;-50
2021/05/27 02:26:33;;;;;;;23.13;18.53;;;;;;;;;;5054215;28;20402;-49
2021/05/27 02:29:00;;;;;;;24.57;18.00;;;;;;;;;;5053734;28;20421;-49
2021/05/27 02:31:26;;;;;;;26.87;19.10;;;;;;;;;;5053605;28;20462;-50
2021/05/27 02:33:53;;;;;;;23.20;17.30;;;;;;;;;;5053644;28;20402;-50
2021/05/27 02:36:19;;;;;;;22.67;16.93;;;;;;;;;;5053362;28;20397;-49
2021/05/27 02:38:46;;;;;;;21.73;15.60;;;;;;;;;;5053829;28;20847;-50
2021/05/27 02:41:12;;;;;;;19.70;15.90;;;;;;;;;;5053467;28;20402;-52
2021/05/27 02:43:38;;;;;;;20.23;15.13;;;;;;;;;;5053629;28;20389;-49
2021/05/27 02:46:04;;;;;;;18.83;15.77;;;;;;;;;;5053307;28;20485;-49
2021/05/27 02:48:30;;;;;;;19.80;15.63;;;;;;;;;;5051719;28;20449;-51
2021/05/27 02:50:57;;;;;;;20.27;15.60;;;;;;;;;;5053316;28;20409;-51
2021/05/27 02:53:24;;;;;;;25.67;16.10;;;;;;;;;;5053199;28;20399;-50
2021/05/27 02:55:50;;;;;;;22.63;16.37;;;;;;;;;;5053134;28;20409;-50
2021/05/27 02:58:16;;;;;;;17.60;15.07;;;;;;;;;;5053095;28;20999;-50
2021/05/27 03:00:42;;;;;;;31.20;18.20;;;;;;;;;;5053162;28;20435;-50
2021/05/27 03:03:08;;;;;;;20.30;16.37;;;;;;;;;;5052775;28;20424;-50
2021/05/27 03:05:34;;;;;;;17.93;15.97;;;;;;;;;;5053103;28;20887;-49
2021/05/27 03:08:00;;;;;;;25.00;16.83;;;;;;;;;;5052896;28;20417;-50
2021/05/27 03:10:26;;;;;;;22.60;17.17;;;;;;;;;;5053075;28;20798;-50
2021/05/27 03:12:52;;;;;;;22.10;15.10;;;;;;;;;;5053244;28;20700;-49
2021/05/27 03:15:18;;;;;;;21.23;15.93;;;;;;;;;;5052753;28;20446;-51
2021/05/27 03:17:44;;;;;;;25.10;14.63;;;;;;;;;;5052651;28;20496;-50
2021/05/27 03:20:11;;;;;;;28.20;16.73;;;;;;;;;;5053140;28;20420;-50
2021/05/27 03:22:37;;;;;;;23.67;16.00;;;;;;;;;;5052373;28;20434;-51
2021/05/27 03:25:03;;;;;;;19.40;15.27;;;;;;;;;;5052816;28;20432;-51
2021/05/27 03:27:29;;;;;;;33.23;16.27;;;;;;;;;;5052394;28;20427;-50
2021/05/27 03:29:55;;;;;;;25.40;15.80;;;;;;;;;;5052364;28;20488;-50
2021/05/27 03:32:21;;;;;;;29.37;18.50;;;;;;;;;;5052134;28;20417;-50
2021/05/27 03:34:47;;;;;;;32.90;18.97;;;;;;;;;;5051635;28;20404;-51
2021/05/27 03:37:13;;;;;;;30.73;18.80;;;;;;;;;;5052238;28;20991;-50
2021/05/27 03:39:39;;;;;;;32.73;19.87;;;;;;;;;;5052507;28;20746;-49
2021/05/27 03:42:05;;;;;;;25.47;17.30;;;;;;;;;;5052420;28;20893;-50
2021/05/27 03:44:31;;;;;;;24.93;17.20;;;;;;;;;;5052307;28;20414;-51
2021/05/27 03:46:57;;;;;;;29.80;18.40;;;;;;;;;;5052389;28;20434;-50
2021/05/27 03:49:23;;;;;;;29.40;18.03;;;;;;;;;;5052031;28;20427;-50
2021/05/27 03:51:49;;;;;;;22.67;15.77;;;;;;;;;;5051788;28;20471;-50
2021/05/27 03:54:15;;;;;;;25.73;15.77;;;;;;;;;;5052057;28;20463;-49
2021/05/27 03:56:41;;;;;;;25.40;16.07;;;;;;;;;;5052913;28;21248;-50
2021/05/27 04:01:52;;;;;;;29.60;15.07;;;;;;;;;;5051988;28;20928;-50
2021/05/27 04:09:34;;;;;;;23.27;14.73;;;;;;;;;;5050060;28;20409;-50
2021/05/27 04:15:19;;;;;;;29.13;15.43;;;;;;;;;;5051244;28;20970;-51
2021/05/27 04:17:32;;;;;;;26.03;15.53;;;;;;;;;;5051576;28;20834;-50
2021/05/27 04:19:58;;;;;;;22.43;14.10;;;;;;;;;;5052258;28;20888;-50
2021/05/27 04:22:23;;;;;;;19.87;13.80;;;;;;;;;;5051462;28;20436;-52
2021/05/27 04:24:50;;;;;;;27.40;14.90;;;;;;;;;;5051884;28;20500;-49
2021/05/27 04:27:16;;;;;;;22.60;13.10;;;;;;;;;;5051609;28;20527;-50
2021/05/27 04:29:41;;;;;;;21.53;14.60;;;;;;;;;;5051692;28;20846;-50
2021/05/27 04:32:07;;;;;;;33.57;15.37;;;;;;;;;;5051314;28;20496;-50
2021/05/27 04:34:33;;;;;;;35.47;17.30;;;;;;;;;;5051266;28;20409;-50
2021/05/27 04:36:59;;;;;;;25.50;15.10;;;;;;;;;;5051714;28;20456;-50
2021/05/27 04:39:25;;;;;;;28.87;17.20;;;;;;;;;;5051756;28;20446;-50
2021/05/27 04:41:51;;;;;;;25.03;17.17;;;;;;;;;;5051495;28;20467;-50
2021/05/27 04:44:17;;;;;;;30.13;17.83;;;;;;;;;;5051540;28;20755;-50
2021/05/27 04:46:43;;;;;;;25.73;17.33;;;;;;;;;;5051138;28;20539;-50
2021/05/27 04:49:09;;;;;;;26.57;18.40;;;;;;;;;;5051101;28;20425;-50
2021/05/27 04:51:35;;;;;;;35.00;20.00;;;;;;;;;;5051243;28;20409;-52
2021/05/27 04:54:01;;;;;;;37.67;20.30;;;;;;;;;;5051251;28;20819;-53
2021/05/27 04:56:27;;;;;;;39.97;22.00;;;;;;;;;;5051536;28;20816;-50
2021/05/27 04:58:53;;;;;;;30.50;18.60;;;;;;;;;;5051298;28;20424;-50
2021/05/27 05:01:19;;;;;;;45.53;19.20;;;;;;;;;;5051453;28;20406;-50
2021/05/27 05:03:45;;;;;;;29.80;16.77;;;;;;;;;;5051046;28;20550;-50
2021/05/27 05:06:11;;;;;;;28.17;16.70;;;;;;;;;;5051326;28;20897;-52
2021/05/27 05:08:37;;;;;;;29.90;16.07;;;;;;;;;;5050987;28;20417;-50
2021/05/27 05:11:03;;;;;;;33.27;18.70;;;;;;;;;;5051370;28;20409;-51
2021/05/27 05:13:29;;;;;;;27.40;18.80;;;;;;;;;;5050765;28;20405;-50
2021/05/27 05:15:55;;;;;;;46.33;19.50;;;;;;;;;;5050849;28;20402;-50
2021/05/27 05:18:21;;;;;;;25.37;17.53;;;;;;;;;;5050531;28;20457;-50
2021/05/27 05:20:51;;;;;;;27.20;17.20;;;;;;;;;;5050920;28;20394;-51
2021/05/27 05:23:17;;;;;;;26.00;17.53;;;;;;;;;;5050873;28;20746;-50
2021/05/27 05:25:44;;;;;;;31.53;18.50;;;;;;;;;;5050864;28;20460;-50
2021/05/27 05:28:13;;;;;;;25.70;17.27;;;;;;;;;;5051409;28;20495;-51
2021/05/27 05:30:40;;;;;;;26.23;19.70;;;;;;;;;;5050349;28;20441;-50
2021/05/27 05:33:06;;;;;;;30.10;18.87;;;;;;;;;;5049903;28;20409;-52
2021/05/27 05:35:32;;;;;;;31.10;19.40;;;;;;;;;;5050294;28;20401;-51
2021/05/27 05:37:58;;;;;;;25.50;18.13;;;;;;;;;;5050242;28;20543;-52
2021/05/27 05:40:26;;;;;;;25.97;17.93;;;;;;;;;;5050261;28;20496;-51
2021/05/27 05:42:52;;;;;;;28.77;17.73;;;;;;;;;;5050590;28;20397;-51
2021/05/27 05:45:18;;;;;;;22.13;17.00;;;;;;;;;;5050244;28;20394;-51
2021/05/27 05:47:45;;;;;;;31.53;17.07;;;;;;;;;;5049827;28;20937;-51
2021/05/27 05:50:11;;;;;;;27.87;14.93;;;;;;;;;;5050655;28;20402;-52
2021/05/27 05:52:37;;;;;;;37.30;16.47;;;;;;;;;;5049967;28;20487;-51
2021/05/27 05:55:04;;;;;;;25.13;15.80;;;;;;;;;;5050441;28;21169;-50
2021/05/27 05:57:30;;;;;;;23.00;14.93;;;;;;;;;;5049928;28;20547;-51
2021/05/27 05:59:56;;;;;;;21.00;15.73;;;;;;;;;;5053267;28;20432;-50
2021/05/27 06:02:22;;;;;;;30.40;17.27;;;;;;;;;;5053605;28;20416;-51
2021/05/27 06:04:48;;;;;;;22.27;15.50;;;;;;;;;;5053940;28;20449;-51
2021/05/27 06:07:14;;;;;;;21.93;14.33;;;;;;;;;;5054092;28;20461;-51
2021/05/27 06:09:40;;;;;;;24.23;16.60;;;;;;;;;;5054210;28;20403;-51
2021/05/27 06:12:06;;;;;;;26.47;16.60;;;;;;;;;;5053755;28;20406;-51
2021/05/27 06:14:35;;;;;;;24.60;16.00;;;;;;;;;;5053660;28;20411;-51
2021/05/27 06:17:01;;;;;;;25.60;15.50;;;;;;;;;;5053918;28;20786;-51
2021/05/27 06:19:26;;;;;;;24.40;14.63;;;;;;;;;;5053564;28;20512;-51
2021/05/27 06:21:52;;;;;;;20.30;14.10;;;;;;;;;;5053540;28;20497;-51
2021/05/27 06:24:18;;;;;;;24.27;14.83;;;;;;;;;;5053497;28;20394;-50
2021/05/27 06:26:44;;;;;;;20.80;14.10;;;;;;;;;;5053753;28;20401;-51
2021/05/27 06:29:10;;;;;;;23.70;14.20;;;;;;;;;;5053356;28;20430;-51
2021/05/27 06:31:36;;;;;;;22.40;13.63;;;;;;;;;;5053457;28;20815;-51
2021/05/27 06:34:02;;;;;;;26.17;15.67;;;;;;;;;;5053522;28;20837;-50
2021/05/27 06:36:28;;;;;;;22.00;14.43;;;;;;;;;;5053746;28;20420;-51
2021/05/27 06:38:54;;;;;;;23.73;17.60;;;;;;;;;;5053390;28;20781;-51
2021/05/27 06:41:20;;;;;;;22.47;13.87;;;;;;;;;;5052499;28;20492;-50
2021/05/27 06:43:47;;;;;;;20.47;13.23;;;;;;;;;;5053095;28;20400;-51
2021/05/27 06:46:13;;;;;;;20.13;13.67;;;;;;;;;;5053188;28;20398;-51
2021/05/27 06:48:40;;;;;;;22.87;15.17;;;;;;;;;;5053143;28;20452;-51
2021/05/27 06:51:06;;;;;;;16.97;13.27;;;;;;;;;;5053385;28;20417;-51
2021/05/27 06:53:32;;;;;;;20.23;15.90;;;;;;;;;;5052900;28;20894;-51
2021/05/27 06:55:58;;;;;;;25.10;14.90;;;;;;;;;;5052982;28;20438;-51
2021/05/27 06:58:24;;;;;;;25.00;16.27;;;;;;;;;;5052791;28;20492;-51
2021/05/27 07:00:50;;;;;;;23.53;17.50;;;;;;;;;;5052840;28;20468;-51
2021/05/27 07:03:18;;;;;;;21.67;14.77;;;;;;;;;;5052811;28;20478;-51
2021/05/27 07:05:44;;;;;;;22.40;14.77;;;;;;;;;;5052811;28;20406;-51
2021/05/27 07:08:10;;;;;;;26.03;15.23;;;;;;;;;;5052732;28;20490;-51
2021/05/27 07:10:36;;;;;;;21.63;14.23;;;;;;;;;;5052559;28;20906;-50
2021/05/27 07:13:04;;;;;;;23.10;13.90;;;;;;;;;;5052212;28;20537;-51
2021/05/27 07:15:30;;;;;;;18.10;14.23;;;;;;;;;;5053049;28;20401;-51
2021/05/27 07:17:57;;;;;;;21.13;15.07;;;;;;;;;;5052624;28;20961;-51
2021/05/27 07:20:23;;;;;;;22.37;14.73;;;;;;;;;;5052717;28;20805;-51
2021/05/27 07:22:50;;;;;;;20.13;13.27;;;;;;;;;;5052632;28;20794;-51
2021/05/27 07:25:17;;;;;;;20.47;14.63;;;;;;;;;;5052554;28;20464;-51
2021/05/27 07:27:44;;;;;;;21.10;14.20;;;;;;;;;;5052196;28;20497;-51
2021/05/27 07:30:10;;;;;;;28.43;15.00;;;;;;;;;;5052398;28;20776;-51
2021/05/27 07:32:36;;;;;;;21.27;13.97;;;;;;;;;;5052044;28;20487;-51
2021/05/27 07:35:03;;;;;;;26.63;15.47;;;;;;;;;;5052479;28;20463;-51
2021/05/27 07:37:29;;;;;;;22.60;15.93;;;;;;;;;;5052023;28;20464;-51
2021/05/27 07:39:55;;;;;;;23.33;16.47;;;;;;;;;;5052212;28;20401;-51
2021/05/27 07:42:21;;;;;;;29.33;17.70;;;;;;;;;;5052059;28;20808;-51
2021/05/27 07:44:47;;;;;;;23.00;15.10;;;;;;;;;;5051970;28;20776;-51
2021/05/27 07:47:13;;;;;;;22.10;15.33;;;;;;;;;;5052047;28;20429;-51
2021/05/27 07:49:39;;;;;;;26.80;16.97;;;;;;;;;;5052160;28;20484;-51
2021/05/27 07:52:06;;;;;;;21.03;14.97;;;;;;;;;;5051831;28;20893;-51
2021/05/27 07:54:32;;;;;;;20.00;14.60;;;;;;;;;;5051763;28;20780;-51
2021/05/27 07:56:58;;;;;;;23.43;15.13;;;;;;;;;;5051954;28;20457;-51
2021/05/27 07:59:24;;;;;;;25.03;16.87;;;;;;;;;;5051750;28;20414;-51
2021/05/27 08:01:50;;;;;;;19.63;14.60;;;;;;;;;;5051797;28;20502;-50
2021/05/27 08:04:16;;;;;;;22.27;14.90;;;;;;;;;;5051750;28;20439;-51
2021/05/27 08:06:42;;;;;;;22.23;14.43;;;;;;;;;;5051957;28;20908;-51
2021/05/27 08:09:10;;;;;;;19.53;13.83;;;;;;;;;;5051462;28;20464;-51
2021/05/27 08:11:37;;;;;;;19.20;12.30;;;;;;;;;;5051867;28;20460;-50
2021/05/27 08:14:03;;;;;;;23.07;13.37;;;;;;;;;;5051594;28;20508;-51
2021/05/27 08:16:29;;;;;;;18.93;13.27;;;;;;;;;;5051700;28;20841;-51
2021/05/27 08:18:54;;;;;;;19.60;12.40;;;;;;;;;;5051897;28;20429;-51
2021/05/27 08:21:21;;;;;;;20.50;12.20;;;;;;;;;;5051058;28;20409;-51
2021/05/27 08:23:47;;;;;;;21.27;12.20;;;;;;;;;;5051559;28;20403;-51
2021/05/27 08:26:13;;;;;;;15.33;11.13;;;;;;;;;;5051448;28;20405;-51
2021/05/27 08:28:39;;;;;;;14.93;11.13;;;;;;;;;;5051288;28;20426;-51
2021/05/27 08:31:05;;;;;;;20.90;12.70;;;;;;;;;;5051490;28;20414;-51
2021/05/27 08:33:31;;;;;;;16.20;11.87;;;;;;;;;;5050934;28;20492;-51
2021/05/27 08:35:57;;;;;;;17.93;11.23;;;;;;;;;;5051135;28;20488;-50
2021/05/27 08:38:23;;;;;;;15.80;11.20;;;;;;;;;;5050851;28;20548;-51
2021/05/27 08:40:49;;;;;;;14.50;10.80;;;;;;;;;;5051041;28;20401;-51
2021/05/27 08:43:15;;;;;;;16.03;11.00;;;;;;;;;;5050804;28;20472;-51
2021/05/27 08:45:42;;;;;;;16.23;10.03;;;;;;;;;;5051162;28;20493;-51
2021/05/27 08:48:26;;;;;;;14.37;9.97;;;;;;;;;;5050860;28;20473;-51
2021/05/27 08:50:53;;;;;;;14.30;11.13;;;;;;;;;;5050836;28;20772;-50
2021/05/27 08:53:19;;;;;;;12.70;10.33;;;;;;;;;;5050739;28;20412;-51
2021/05/27 08:55:46;;;;;;;12.90;9.90;;;;;;;;;;5051004;28;20429;-51
2021/05/27 08:58:13;;;;;;;12.23;9.77;;;;;;;;;;5050535;28;20480;-50
2021/05/27 09:00:39;;;;;;;17.83;9.40;;;;;;;;;;5065090;28;20996;-51
2021/05/27 09:03:06;;;;;;;13.10;9.23;;;;;;;;;;5050329;28;20547;-51
2021/05/27 09:05:36;;;;;;;13.40;10.07;;;;;;;;;;5050418;28;20883;-51
2021/05/27 09:08:03;;;;;;;15.30;11.10;;;;;;;;;;5050542;28;20422;-51
2021/05/27 09:10:39;;;;;;;11.97;9.27;;;;;;;;;;5050589;28;20407;-51
2021/05/27 09:13:19;;;;;;;14.53;9.43;;;;;;;;;;5050171;28;20405;-51
2021/05/27 09:15:49;;;;;;;13.67;11.77;;;;;;;;;;5050472;28;20402;-51
2021/05/27 09:18:31;;;;;;;13.03;10.40;;;;;;;;;;5050625;28;20452;-51
2021/05/27 09:20:57;;;;;;;19.17;11.80;;;;;;;;;;5050755;28;20404;-51
2021/05/27 09:23:23;;;;;;;15.50;12.33;;;;;;;;;;5050249;28;20398;-50
2021/05/27 09:25:49;;;;;;;22.20;12.10;;;;;;;;;;5050350;28;20402;-51
2021/05/27 09:28:23;;;;;;;17.50;12.07;;;;;;;;;;5050157;28;20422;-50
2021/05/27 09:30:52;;;;;;;20.50;11.43;;;;;;;;;;5050330;28;20433;-50
2021/05/27 09:33:18;;;;;;;18.73;11.17;;;;;;;;;;5050545;28;20397;-50
2021/05/27 09:35:44;;;;;;;19.63;12.17;;;;;;;;;;5054303;28;20447;-51
2021/05/27 09:38:11;;;;;;;21.03;12.40;;;;;;;;;;5052517;28;20468;-51
2021/05/27 09:40:40;;;;;;;15.43;13.20;;;;;;;;;;5053423;28;20401;-51
2021/05/27 09:43:07;;;;;;;17.70;14.40;;;;;;;;;;5053820;28;20391;-51
2021/05/27 09:45:34;;;;;;;17.43;11.80;;;;;;;;;;5054307;28;20405;-51
2021/05/27 09:48:16;;;;;;;22.43;11.43;;;;;;;;;;5054095;28;20441;-51
2021/05/27 09:50:42;;;;;;;16.73;11.70;;;;;;;;;;5054305;28;20761;-51
2021/05/27 09:53:13;;;;;;;23.63;12.37;;;;;;;;;;5053972;28;20896;-51
2021/05/27 09:55:39;;;;;;;18.57;13.27;;;;;;;;;;5053358;28;21027;-51
2021/05/27 09:58:10;;;;;;;18.30;12.23;;;;;;;;;;5053675;28;20555;-51
2021/05/27 10:00:36;;;;;;;20.27;12.00;;;;;;;;;;5054019;28;20416;-51
2021/05/27 10:03:20;;;;;;;13.80;10.13;;;;;;;;;;5053355;28;20405;-51
2021/05/27 10:05:47;;;;;;;14.57;9.00;;;;;;;;;;5053809;28;20466;-50
2021/05/27 10:08:13;;;;;;;17.87;9.10;;;;;;;;;;5053737;28;20431;-50
2021/05/27 10:10:41;;;;;;;13.27;9.80;;;;;;;;;;5054103;28;20408;-50
2021/05/27 10:13:08;;;;;;;12.03;9.77;;;;;;;;;;5053956;28;20492;-51
2021/05/27 10:15:34;;;;;;;14.13;10.33;;;;;;;;;;5053854;28;20371;-51
2021/05/27 10:18:04;;;;;;;15.70;11.20;;;;;;;;;;5053855;28;20464;-50
2021/05/27 10:20:30;;;;;;;11.07;9.87;;;;;;;;;;5053924;28;20397;-50
2021/05/27 10:22:59;;;;;;;12.23;10.80;;;;;;;;;;5053549;28;20465;-50
2021/05/27 10:25:26;;;;;;;17.90;10.60;;;;;;;;;;5053649;28;20411;-50
2021/05/27 10:27:53;;;;;;;12.33;10.40;;;;;;;;;;5053675;28;20924;-51
2021/05/27 10:30:20;;;;;;;18.17;10.30;;;;;;;;;;5053070;28;20877;-50
2021/05/27 10:32:50;;;;;;;12.90;10.20;;;;;;;;;;5053189;28;20398;-50
2021/05/27 10:35:16;;;;;;;13.57;9.70;;;;;;;;;;5053306;28;20411;-50
2021/05/27 10:37:43;;;;;;;11.33;10.20;;;;;;;;;;5053121;28;20459;-50
2021/05/27 10:40:12;;;;;;;13.00;10.30;;;;;;;;;;5053648;28;20437;-51
2021/05/27 10:43:05;;;;;;;11.10;9.90;;;;;;;;;;5052917;28;20511;-51
2021/05/27 10:45:32;;;;;;;13.77;8.67;;;;;;;;;;5052538;28;20394;-51
2021/05/27 10:48:14;;;;;;;11.87;8.57;;;;;;;;;;5052880;28;20479;-51
2021/05/27 10:53:37;;;;;;;10.13;6.83;;;;;;;;;;5053296;28;20437;-50
2021/05/27 10:56:04;;;;;;;11.30;8.57;;;;;;;;;;5052819;28;20407;-51
2021/05/27 10:58:49;;;;;;;11.23;7.20;;;;;;;;;;5052814;28;20972;-51
2021/05/27 11:01:19;;;;;;;11.80;7.40;;;;;;;;;;5052880;28;20402;-51
2021/05/27 11:03:50;;;;;;;12.33;7.80;;;;;;;;;;5052710;28;20401;-51
2021/05/27 11:06:25;;;;;;;11.47;7.80;;;;;;;;;;5052804;28;20397;-51
2021/05/27 11:09:03;;;;;;;8.67;7.87;;;;;;;;;;5052566;28;20421;-51
2021/05/27 11:11:36;;;;;;;9.87;8.20;;;;;;;;;;5052556;28;20414;-50
2021/05/27 11:14:21;;;;;;;11.67;9.23;;;;;;;;;;5052541;28;20492;-51
2021/05/27 11:17:21;;;;;;;19.00;10.13;;;;;;;;;;5052531;28;20490;-51
2021/05/27 11:19:59;;;;;;;10.90;9.30;;;;;;;;;;5052311;28;20877;-51
2021/05/27 11:25:13;;;;;;;14.77;10.70;;;;;;;;;;5032164;28;20443;-51
2021/05/27 11:27:54;;;;;;;13.00;11.60;;;;;;;;;;5033080;28;20497;-50
2021/05/27 11:30:33;;;;;;;13.23;10.17;;;;;;;;;;5032300;28;20501;-51
2021/05/27 11:32:59;;;;;;;12.30;10.50;;;;;;;;;;5032145;28;20436;-50
2021/05/27 11:35:29;;;;;;;13.90;11.20;;;;;;;;;;5032119;28;20838;-50
2021/05/27 11:37:55;;;;;;;13.93;11.30;;;;;;;;;;5032178;28;20459;-51
2021/05/27 11:40:22;;;;;;;12.57;11.30;;;;;;;;;;5032232;28;20410;-51
2021/05/27 11:42:49;;;;;;;16.30;11.73;;;;;;;;;;5031841;28;20396;-52
2021/05/27 11:45:16;;;;;;;14.67;12.17;;;;;;;;;;5032300;28;20412;-51
2021/05/27 11:47:42;;;;;;;12.30;10.60;;;;;;;;;;5032007;28;20451;-50
2021/05/27 11:50:09;;;;;;;13.60;11.10;;;;;;;;;;5032346;28;20408;-50
2021/05/27 11:52:35;;;;;;;15.60;9.40;;;;;;;;;;5032101;28;20428;-50
2021/05/27 11:55:01;;;;;;;11.57;10.07;;;;;;;;;;5032279;28;20377;-50
2021/05/27 11:57:40;;;;;;;15.27;9.70;;;;;;;;;;5030891;28;20454;-50
2021/05/27 12:00:07;;;;;;;17.23;10.97;;;;;;;;;;5032081;28;20410;-50
2021/05/27 12:02:43;;;;;;;14.23;10.70;;;;;;;;;;5031489;28;20412;-51
2021/05/27 12:05:24;;;;;;;15.23;11.90;;;;;;;;;;5031853;28;20415;-51
2021/05/27 12:07:57;;;;;;;14.27;10.57;;;;;;;;;;5032014;28;20431;-51
2021/05/27 12:10:24;;;;;;;14.10;10.50;;;;;;;;;;5031512;28;20992;-50
2021/05/27 12:12:50;;;;;;;16.77;10.90;;;;;;;;;;5031338;28;20402;-51
2021/05/27 12:15:16;;;;;;;17.20;11.13;;;;;;;;;;5031308;28;20422;-50
2021/05/27 12:17:45;;;;;;;15.70;11.93;;;;;;;;;;5031473;28;20468;-50
2021/05/27 12:20:20;;;;;;;13.57;10.17;;;;;;;;;;5031401;28;20408;-51
2021/05/27 12:22:46;;;;;;;22.90;11.10;;;;;;;;;;5031626;28;20406;-50
2021/05/27 12:25:12;;;;;;;15.80;12.00;;;;;;;;;;5031315;28;20398;-51
2021/05/27 12:27:58;;;;;;;16.77;11.50;;;;;;;;;;5031192;28;20430;-51
2021/05/27 12:30:25;;;;;;;21.20;11.43;;;;;;;;;;5031192;28;20407;-50
2021/05/27 12:32:52;;;;;;;11.47;10.27;;;;;;;;;;5031148;28;20416;-50
2021/05/27 12:35:28;;;;;;;12.60;11.30;;;;;;;;;;5031396;28;20409;-50
2021/05/27 12:37:56;;;;;;;17.37;10.10;;;;;;;;;;5031264;28;20457;-51
2021/05/27 12:40:24;;;;;;;22.37;10.57;;;;;;;;;;5031409;28;20408;-50
2021/05/27 12:42:51;;;;;;;11.80;10.63;;;;;;;;;;5030996;28;20414;-50
2021/05/27 12:45:25;;;;;;;19.03;12.50;;;;;;;;;;5031170;28;20442;-50
2021/05/27 12:48:11;;;;;;;12.57;9.90;;;;;;;;;;5030562;28;20439;-50
2021/05/27 12:50:38;;;;;;;25.50;13.13;;;;;;;;;;5030227;28;20414;-51
2021/05/27 12:53:05;;;;;;;16.07;13.10;;;;;;;;;;5030736;28;20405;-51
2021/05/27 12:55:33;;;;;;;17.27;12.53;;;;;;;;;;5031031;28;20822;-50
2021/05/27 12:58:00;;;;;;;16.47;13.30;;;;;;;;;;5030734;28;20469;-50
2021/05/27 13:00:27;;;;;;;16.20;14.50;;;;;;;;;;5030773;28;20402;-51
2021/05/27 13:03:00;;;;;;;17.37;14.80;;;;;;;;;;5030327;28;20431;-51
2021/05/27 13:05:26;;;;;;;18.13;13.73;;;;;;;;;;5030789;28;20492;-50
2021/05/27 13:07:59;;;;;;;17.57;14.30;;;;;;;;;;5030367;28;20514;-51
2021/05/27 13:10:33;;;;;;;21.97;15.57;;;;;;;;;;5030721;28;20915;-51
2021/05/27 13:12:59;;;;;;;24.63;17.03;;;;;;;;;;5029449;28;20809;-51
2021/05/27 13:15:25;;;;;;;28.57;17.70;;;;;;;;;;5030470;28;20941;-50
2021/05/27 13:18:10;;;;;;;22.37;17.50;;;;;;;;;;5030486;28;20547;-50
2021/05/27 13:20:52;;;;;;;22.03;17.57;;;;;;;;;;5030559;28;20444;-51
2021/05/27 13:23:25;;;;;;;22.03;16.27;;;;;;;;;;5030411;28;20770;-50
2021/05/27 13:25:51;;;;;;;24.50;15.87;;;;;;;;;;5030507;28;20454;-50
2021/05/27 13:28:24;;;;;;;28.50;14.50;;;;;;;;;;5030568;28;20427;-51
2021/05/27 13:30:51;;;;;;;24.90;15.20;;;;;;;;;;5030495;28;20752;-51
2021/05/27 13:33:19;;;;;;;22.53;16.53;;;;;;;;;;5030390;28;20410;-51
2021/05/27 13:35:46;;;;;;;20.30;15.13;;;;;;;;;;5030445;28;20897;-50
2021/05/27 13:38:13;;;;;;;20.13;14.30;;;;;;;;;;5030314;28;20992;-50
2021/05/27 13:40:39;;;;;;;20.67;15.03;;;;;;;;;;5030459;28;21083;-50
2021/05/27 13:43:08;;;;;;;19.07;14.50;;;;;;;;;;5030296;28;20401;-50
2021/05/27 13:45:34;;;;;;;19.17;13.63;;;;;;;;;;5030491;28;20403;-50
2021/05/27 13:48:00;;;;;;;18.90;14.50;;;;;;;;;;5030253;28;20951;-50
2021/05/27 13:50:30;;;;;;;16.53;14.23;;;;;;;;;;5030145;28;20401;-50
2021/05/27 13:52:58;;;;;;;18.43;14.67;;;;;;;;;;5030018;28;20421;-50
2021/05/27 13:55:26;;;;;;;20.63;14.33;;;;;;;;;;5030205;28;20400;-51
2021/05/27 13:57:52;;;;;;;16.63;14.00;;;;;;;;;;5030105;28;20457;-51
2021/05/27 14:00:18;;;;;;;19.73;14.27;;;;;;;;;;5030506;28;20750;-51
2021/05/27 14:02:44;;;;;;;32.00;14.10;;;;;;;;;;5028908;28;20427;-52
2021/05/27 14:05:12;;;;;;;21.13;13.73;;;;;;;;;;5030336;28;20401;-50
2021/05/27 14:07:38;;;;;;;19.83;13.70;;;;;;;;;;5030045;28;20430;-51
2021/05/27 14:10:05;;;;;;;16.57;13.13;;;;;;;;;;5030244;28;20417;-51
2021/05/27 14:12:31;;;;;;;15.50;12.40;;;;;;;;;;5029832;28;20493;-51
2021/05/27 14:15:00;;;;;;;19.00;13.70;;;;;;;;;;5030199;28;20410;-50
2021/05/27 14:17:26;;;;;;;27.50;14.83;;;;;;;;;;5030289;28;20498;-50
2021/05/27 14:19:52;;;;;;;17.93;13.10;;;;;;;;;;5031545;28;20406;-50
2021/05/27 14:22:18;;;;;;;19.67;13.47;;;;;;;;;;5033565;28;20398;-51
2021/05/27 14:24:44;;;;;;;18.57;12.47;;;;;;;;;;5033728;28;20428;-50
2021/05/27 14:27:10;;;;;;;16.90;13.27;;;;;;;;;;5033709;28;20509;-50
2021/05/27 14:29:36;;;;;;;18.93;12.40;;;;;;;;;;5033627;28;20412;-50
2021/05/27 14:32:03;;;;;;;18.43;11.43;;;;;;;;;;5033496;28;20413;-51
2021/05/27 14:34:29;;;;;;;15.73;11.00;;;;;;;;;;5033453;28;20448;-50
2021/05/27 14:36:55;;;;;;;15.33;9.40;;;;;;;;;;5033596;28;20456;-50
2021/05/27 14:39:21;;;;;;;11.27;10.03;;;;;;;;;;5033388;28;20418;-50
2021/05/27 14:41:48;;;;;;;12.50;9.37;;;;;;;;;;5033348;28;20401;-50
2021/05/27 14:44:14;;;;;;;11.17;9.13;;;;;;;;;;5033374;28;20403;-51